Time;durP1;ratioP1;P1;durP2;ratioP2;P2;SDS_P1;SDS_P2;PMS_P1;PMS_P2;Temp;Humidity;BMP_temperature;BMP_pressure;BME280_temperature;BME280_humidity;BME280_pressure;Samples;Min_cycle;Max_cycle;Signal;HPM_P1;HPM_P2
2021/06/01 01:52:37;;;;;;;;;;;12.60;99.90;;;;;;5218294;23;19922;-80
2021/06/01 01:55:04;;;;;;;;;;;12.70;99.90;;;;;;4976584;28;20001;-80
2021/06/01 01:57:31;;;;;;;;;;;12.80;99.90;;;;;;4976472;28;19906;-80
2021/06/01 01:59:57;;;;;;;;;;;12.80;99.90;;;;;;4977702;28;20384;-80
2021/06/01 02:04:58;;;;;;;;;;;12.80;99.90;;;;;;5045535;23;19922;-80
2021/06/01 02:07:24;;;;;;;;;;;12.70;99.90;;;;;;4976396;28;19997;-81
2021/06/01 02:09:50;;;;;;;;;;;12.60;99.90;;;;;;4976580;28;20012;-80
2021/06/01 02:14:54;;;;;;;;;;;12.40;99.90;;;;;;5255404;23;19929;-80
2021/06/01 02:17:20;;;;;;;;;;;12.30;99.90;;;;;;4976054;28;19936;-80
2021/06/01 02:19:47;;;;;;;;;;;12.10;99.90;;;;;;4976479;28;20373;-80
2021/06/01 02:24:46;;;;;;;;;;;11.90;99.90;;;;;;4977283;28;19906;-80
2021/06/01 02:27:14;;;;;;;;;;;11.80;99.90;;;;;;4976094;28;19910;-80
2021/06/01 02:29:51;;;;;;;;;;;11.80;99.90;;;;;;4975925;28;19910;-80
2021/06/01 02:50:48;;;;;;;;;;;11.50;99.90;;;;;;5781568;23;19922;-80
2021/06/01 02:53:14;;;;;;;;;;;11.50;99.90;;;;;;4976699;28;19909;-80
2021/06/01 02:55:41;;;;;;;;;;;11.40;99.90;;;;;;4975309;28;19961;-80
2021/06/01 02:58:07;;;;;;;;;;;11.40;99.90;;;;;;4975515;28;19906;-80
2021/06/01 03:00:34;;;;;;;;;;;11.30;99.90;;;;;;4974003;28;20437;-80
2021/06/01 03:03:02;;;;;;;;;;;11.20;99.90;;;;;;4975829;28;19906;-80
2021/06/01 03:05:28;;;;;;;;;;;11.20;99.90;;;;;;4974370;28;19959;-80
2021/06/01 03:07:56;;;;;;;;;;;11.10;99.90;;;;;;4975754;28;19909;-80
2021/06/01 03:10:24;;;;;;;;;;;11.40;99.90;;;;;;4974573;28;19913;-80
2021/06/01 03:13:00;;;;;;;;;;;11.40;99.90;;;;;;4974403;28;19952;-80
2021/06/01 03:15:25;;;;;;;;;;;11.40;99.90;;;;;;4974295;28;19910;-80
2021/06/01 03:17:51;;;;;;;;;;;11.30;99.90;;;;;;4973967;28;20271;-80
2021/06/01 03:20:16;;;;;;;;;;;11.30;99.90;;;;;;4973745;28;19913;-80
2021/06/01 03:22:42;;;;;;;;;;;11.30;99.90;;;;;;4973855;28;19913;-79
2021/06/01 03:25:08;;;;;;;;;;;11.30;99.90;;;;;;4972961;28;19906;-80
2021/06/01 03:27:33;;;;;;;;;;;11.20;99.90;;;;;;4973685;28;19910;-80
2021/06/01 03:29:59;;;;;;;;;;;11.10;99.90;;;;;;4973444;28;19906;-80
2021/06/01 03:32:25;;;;;;;;;;;11.10;99.90;;;;;;4973855;28;19956;-79
2021/06/01 03:34:50;;;;;;;;;;;11.10;99.90;;;;;;4973846;28;19952;-80
2021/06/01 03:37:16;;;;;;;;;;;11.20;99.90;;;;;;4974722;28;19914;-79
2021/06/01 03:39:41;;;;;;;;;;;11.30;99.90;;;;;;4973332;28;19906;-80
2021/06/01 03:42:11;;;;;;;;;;;11.30;99.90;;;;;;4973459;28;19913;-80
2021/06/01 03:44:37;;;;;;;;;;;11.20;99.90;;;;;;4973372;28;19953;-80
2021/06/01 03:47:03;;;;;;;;;;;11.20;99.90;;;;;;4973772;28;19992;-80
2021/06/01 03:49:29;;;;;;;;;;;11.10;99.90;;;;;;4973599;28;19905;-80
2021/06/01 03:51:54;;;;;;;;;;;11.00;99.90;;;;;;4973300;28;20284;-79
2021/06/01 03:54:20;;;;;;;;;;;10.90;99.90;;;;;;4973311;28;19906;-80
2021/06/01 03:56:45;;;;;;;;;;;10.90;99.90;;;;;;4973262;28;19917;-80
2021/06/01 03:59:11;;;;;;;;;;;10.90;99.90;;;;;;4972821;28;20358;-80
2021/06/01 04:01:36;;;;;;;;;;;10.80;99.90;;;;;;4972994;28;20016;-80
2021/06/01 04:04:02;;;;;;;;;;;10.80;99.90;;;;;;4973132;28;19906;-80
2021/06/01 04:06:27;;;;;;;;;;;10.80;99.90;;;;;;4973212;28;19912;-80
2021/06/01 04:08:53;;;;;;;;;;;10.90;99.90;;;;;;4973229;28;19968;-80
2021/06/01 04:11:18;;;;;;;;;;;10.90;99.90;;;;;;4973184;28;19913;-80
2021/06/01 04:13:44;;;;;;;;;;;10.90;99.90;;;;;;4973712;28;20365;-80
2021/06/01 04:16:09;;;;;;;;;;;10.90;99.90;;;;;;4973130;28;19910;-80
2021/06/01 04:18:34;;;;;;;;;;;11.00;99.90;;;;;;4973163;28;20289;-80
2021/06/01 04:21:00;;;;;;;;;;;11.10;99.90;;;;;;4973045;28;19913;-80
2021/06/01 04:23:26;;;;;;;;;;;11.20;99.90;;;;;;4974186;28;19906;-80
2021/06/01 04:25:51;;;;;;;;;;;11.20;99.90;;;;;;4972847;28;19910;-79
2021/06/01 04:28:17;;;;;;;;;;;11.30;99.90;;;;;;4972798;28;19913;-80
2021/06/01 04:30:44;;;;;;;;;;;11.40;99.90;;;;;;4972878;28;19913;-79
2021/06/01 04:33:13;;;;;;;;;;;11.50;99.90;;;;;;4962692;28;19972;-80
2021/06/01 04:35:38;;;;;;;;;;;11.60;99.90;;;;;;4953703;28;19953;-80
2021/06/01 04:38:04;;;;;;;;;;;11.70;99.90;;;;;;4953662;28;19946;-80
2021/06/01 04:40:29;;;;;;;;;;;11.90;99.90;;;;;;4953790;28;19907;-80
2021/06/01 04:42:55;;;;;;;;;;;12.10;99.90;;;;;;4953808;28;19999;-80
2021/06/01 04:45:20;;;;;;;;;;;12.70;99.90;;;;;;4953683;28;19910;-80
2021/06/01 04:47:46;;;;;;;;;;;13.10;99.90;;;;;;4952013;28;20314;-80
2021/06/01 04:50:11;;;;;;;;;;;13.80;99.90;;;;;;4960690;28;20004;-80
2021/06/01 04:52:37;;;;;;;;;;;15.20;99.90;;;;;;4993554;28;19918;-80
2021/06/01 04:55:03;;;;;;;;;;;16.20;99.90;;;;;;4995380;28;19906;-80
2021/06/01 04:57:28;;;;;;;;;;;16.40;99.90;;;;;;4967762;28;19910;-79
2021/06/01 04:59:54;;;;;;;;;;;15.90;99.90;;;;;;4998223;28;20409;-80
2021/06/01 05:02:19;;;;;;;;;;;15.20;99.90;;;;;;4953473;28;19941;-80
2021/06/01 05:04:45;;;;;;;;;;;14.60;99.90;;;;;;4957459;28;19910;-80
2021/06/01 05:07:12;;;;;;;;;;;14.50;99.90;;;;;;4972010;28;20382;-80
2021/06/01 05:09:38;;;;;;;;;;;14.60;99.90;;;;;;4962400;28;20297;-80
2021/06/01 05:12:04;;;;;;;;;;;15.10;99.90;;;;;;4968510;28;19914;-80
2021/06/01 05:14:29;;;;;;;;;;;15.70;99.90;;;;;;4959910;28;20268;-80
2021/06/01 05:16:55;;;;;;;;;;;15.50;99.90;;;;;;4959750;28;19910;-80
2021/06/01 05:19:20;;;;;;;;;;;15.40;99.90;;;;;;4962980;28;19907;-80
2021/06/01 05:21:46;;;;;;;;;;;15.30;99.90;;;;;;4971864;28;20000;-80
2021/06/01 05:24:11;;;;;;;;;;;15.20;99.90;;;;;;5003571;28;19912;-80
2021/06/01 05:26:38;;;;;;;2.65;1.80;;;15.50;99.90;;;;;;4979944;28;19922;-79
2021/06/01 05:29:04;;;;;;;1.48;1.33;;;18.00;99.90;;;;;;4961141;28;20401;-80
2021/06/01 05:31:41;;;;;;;1.88;1.48;;;20.50;98.70;;;;;;4959775;28;20031;-80
2021/06/01 05:34:08;;;;;;;;;;;23.60;91.30;;;;;;4971931;28;20030;-81
2021/06/01 05:36:33;;;;;;;1.98;1.33;;;25.20;75.00;;;;;;4972917;28;19914;-80
2021/06/01 05:38:59;;;;;;;2.08;1.50;;;26.10;70.10;;;;;;4971956;28;20025;-82
2021/06/01 05:41:25;;;;;;;1.88;1.63;;;26.70;64.30;;;;;;4971824;28;20022;-81
2021/06/01 05:43:50;;;;;;;1.23;1.13;;;27.60;62.10;;;;;;4973175;28;20030;-82
2021/06/01 05:46:15;;;;;;;;;;;28.20;59.40;;;;;;4972568;28;20030;-81
2021/06/01 05:48:42;;;;;;;;;;;27.50;58.40;;;;;;4972786;28;19910;-82
2021/06/01 05:51:08;;;;;;;;;;;28.90;57.70;;;;;;4976208;28;19920;-82
2021/06/01 05:53:34;;;;;;;;;;;28.90;55.10;;;;;;4976277;28;20012;-81
2021/06/01 05:55:59;;;;;;;;;;;29.90;53.50;;;;;;4975863;28;20385;-81
2021/06/01 05:58:25;;;;;;;;;;;29.90;53.50;;;;;;4975717;28;20293;-82
2021/06/01 06:00:51;;;;;;;;;;;29.40;52.30;;;;;;4976010;28;19906;-80
2021/06/01 06:03:17;;;;;;;2.67;1.20;;;29.10;53.70;;;;;;4976933;28;19973;-80
2021/06/01 06:05:46;;;;;;;1.27;1.27;;;29.90;52.50;;;;;;4977456;28;20050;-81
2021/06/01 06:08:14;;;;;;;1.40;1.30;;;30.50;50.70;;;;;;4975286;28;20259;-81
2021/06/01 06:10:41;;;;;;;3.25;1.83;;;30.40;50.40;;;;;;4975298;28;20399;-80
2021/06/01 06:13:07;;;;;;;1.50;1.10;;;31.30;49.70;;;;;;4976151;28;20027;-80
2021/06/01 06:15:33;;;;;;;1.50;1.02;;;31.60;49.80;;;;;;4975043;28;20023;-81
2021/06/01 06:18:32;;;;;;;2.53;1.42;;;30.80;49.30;;;;;;4977494;28;20061;-80
2021/06/01 06:20:59;;;;;;;0.80;0.80;;;30.40;50.00;;;;;;4966158;28;20023;-81
2021/06/01 06:23:25;;;;;;;1.33;1.13;;;31.50;48.90;;;;;;4956619;29;20094;-81
2021/06/01 06:25:50;;;;;;;;;;;32.30;48.30;;;;;;4957120;29;20482;-80
2021/06/01 06:28:16;;;;;;;1.53;1.43;;;31.70;47.50;;;;;;4957656;29;20421;-81
2021/06/01 06:30:41;;;;;;;1.27;1.20;;;31.30;48.00;;;;;;4956455;28;20042;-81
2021/06/01 06:33:07;;;;;;;0.87;0.87;;;30.60;48.70;;;;;;4956649;29;20031;-81
2021/06/01 06:35:32;;;;;;;1.20;1.10;;;31.20;48.30;;;;;;4956883;29;20632;-81
2021/06/01 06:37:58;;;;;;;1.77;1.10;;;31.80;47.20;;;;;;4958360;28;20102;-81
2021/06/01 06:40:24;;;;;;;1.03;0.97;;;32.30;46.40;;;;;;4955924;28;20030;-80
2021/06/01 06:42:50;;;;;;;1.65;1.40;;;32.10;46.50;;;;;;4956103;29;20026;-82
2021/06/01 06:45:16;;;;;;;3.67;1.50;;;31.70;47.00;;;;;;4956518;29;20031;-82
2021/06/01 06:50:09;;;;;;;1.87;1.30;;;31.00;46.40;;;;;;4963396;28;20483;-82
2021/06/01 06:52:35;;;;;;;1.50;1.40;;;32.00;46.50;;;;;;4972865;28;20038;-82
2021/06/01 06:55:03;;;;;;;4.30;1.95;;;32.90;46.50;;;;;;4975901;28;20027;-81
2021/06/01 06:57:28;;;;;;;;;;;31.50;46.60;;;;;;4976385;28;20027;-82
2021/06/01 06:59:53;;;;;;;;;;;31.80;45.90;;;;;;5008592;28;20158;-80
2021/06/01 07:02:19;;;;;;;;;;;30.30;46.70;;;;;;5008448;28;19910;-81
2021/06/01 07:04:45;;;;;;;5.50;1.52;;;30.00;47.40;;;;;;5008785;28;19910;-81
2021/06/01 07:07:10;;;;;;;1.93;1.30;;;30.40;50.10;;;;;;4975284;28;20082;-81
2021/06/01 07:09:38;;;;;;;0.90;0.90;;;31.60;47.50;;;;;;4975309;28;20031;-80
2021/06/01 07:12:04;;;;;;;3.80;1.17;;;32.20;45.80;;;;;;4977176;28;20413;-81
2021/06/01 07:14:46;;;;;;;2.65;1.00;;;32.80;47.00;;;;;;4973263;28;20027;-80
2021/06/01 07:17:11;;;;;;;1.70;1.27;;;33.60;45.30;;;;;;4974265;28;20580;-81
2021/06/01 07:19:37;;;;;;;;;;;32.90;44.90;;;;;;4975349;28;20022;-81
2021/06/01 07:22:03;;;;;;;1.13;1.03;;;30.60;46.70;;;;;;4974392;28;19945;-80
2021/06/01 07:24:28;;;;;;;;;;;31.60;47.20;;;;;;4975347;28;20031;-81
2021/06/01 07:26:54;;;;;;;;;;;30.90;47.70;;;;;;4975073;28;20254;-79
2021/06/01 07:29:19;;;;;;;;;;;30.90;48.70;;;;;;4974906;28;19951;-81
2021/06/01 07:31:45;;;;;;;;;;;29.80;46.90;;;;;;4976012;28;19910;-79
2021/06/01 07:34:10;;;;;;;;;;;30.40;47.10;;;;;;4975359;28;19938;-81
2021/06/01 07:36:37;;;;;;;;;;;30.50;47.30;;;;;;4976380;28;19914;-80
2021/06/01 07:39:03;;;;;;;2.50;1.80;;;29.30;49.50;;;;;;4975751;28;19910;-79
2021/06/01 07:41:28;;;;;;;1.33;1.23;;;28.10;52.00;;;;;;4974923;28;20490;-79
2021/06/01 07:43:57;;;;;;;1.83;1.40;;;26.70;54.10;;;;;;4974799;28;20034;-80
2021/06/01 07:46:22;;;;;;;;;;;26.00;51.90;;;;;;4975213;28;20030;-79
2021/06/01 07:48:48;;;;;;;;;;;25.70;53.10;;;;;;4974552;28;19906;-80
2021/06/01 07:51:13;;;;;;;;;;;25.10;53.60;;;;;;4974885;28;19918;-80
2021/06/01 07:53:39;;;;;;;;;;;25.10;54.00;;;;;;4974262;28;19949;-81
2021/06/01 07:56:09;;;;;;;;;;;25.50;55.50;;;;;;4974787;28;19914;-79
2021/06/01 07:58:34;;;;;;;;;;;25.30;53.10;;;;;;5007477;28;19910;-80
2021/06/01 08:01:00;;;;;;;;;;;24.90;53.20;;;;;;5007390;28;19913;-80
2021/06/01 08:03:26;;;;;;;;;;;25.00;54.20;;;;;;4975399;28;19996;-81
2021/06/01 08:05:52;;;;;;;;;;;26.50;52.70;;;;;;5007085;28;20009;-80
2021/06/01 08:08:17;;;;;;;;;;;28.40;49.50;;;;;;5006131;28;20281;-81
2021/06/01 08:10:43;;;;;;;;;;;30.40;50.00;;;;;;4975748;28;20032;-79
2021/06/01 08:13:09;;;;;;;5.63;1.70;;;31.80;45.70;;;;;;4975401;28;20353;-82
2021/06/01 08:15:34;;;;;;;;;;;33.40;47.70;;;;;;4970019;28;20105;-81
2021/06/01 08:18:02;;;;;;;;;;;34.10;46.30;;;;;;4975825;28;20005;-81
2021/06/01 08:20:41;;;;;;;;;;;33.10;45.00;;;;;;4974240;28;19906;-80
2021/06/01 08:23:06;;;;;;;;;;;33.20;45.20;;;;;;4974725;28;19906;-81
2021/06/01 08:25:32;;;;;;;;;;;32.80;44.50;;;;;;4975340;28;20350;-79
2021/06/01 08:27:57;;;;;;;;;;;33.30;44.40;;;;;;4975936;28;19906;-79
2021/06/01 08:30:23;;;;;;;;;;;32.90;45.90;;;;;;4974734;28;20520;-80
2021/06/01 08:32:49;;;;;;;;;;;32.60;46.10;;;;;;4974792;28;19906;-81
2021/06/01 08:35:14;;;;;;;1.50;1.30;;;33.30;47.10;;;;;;4974214;28;19917;-81
2021/06/01 08:37:40;;;;;;;;;;;34.10;44.00;;;;;;4975267;28;20430;-80
2021/06/01 08:40:06;;;;;;;;;;;34.80;43.60;;;;;;4973114;28;19943;-81
2021/06/01 08:42:36;;;;;;;;;;;33.90;45.40;;;;;;4975123;28;19913;-80
2021/06/01 08:45:03;;;;;;;;;;;33.40;43.50;;;;;;4974962;28;20380;-82
2021/06/01 08:47:28;;;;;;;;;;;32.40;42.70;;;;;;4978378;28;19953;-81
2021/06/01 08:49:54;;;;;;;;;;;31.30;44.20;;;;;;4978361;28;19917;-81
2021/06/01 08:52:20;;;;;;;0.80;0.70;;;32.00;44.80;;;;;;4978143;28;19918;-82
2021/06/01 08:54:45;;;;;;;1.10;0.90;;;33.20;43.30;;;;;;4978254;28;20050;-82
2021/06/01 08:57:11;;;;;;;1.00;0.90;;;32.60;42.60;;;;;;4972682;28;19921;-82
2021/06/01 08:59:40;;;;;;;1.73;1.57;;;31.30;44.40;;;;;;4976655;28;20052;-81
2021/06/01 09:02:06;;;;;;;0.90;0.90;;;32.50;43.90;;;;;;4975594;28;20035;-82
2021/06/01 09:05:07;;;;;;;0.83;0.77;;;31.10;43.60;;;;;;4972547;28;20120;-82
2021/06/01 09:07:52;;;;;;;0.90;0.80;;;32.00;44.20;;;;;;4925317;28;20031;-82
2021/06/01 09:19:44;;;;;;;1.42;1.15;;;31.40;44.80;;;;;;4957507;28;20163;-82
2021/06/01 09:21:15;;;;;;;1.05;0.95;;;30.30;42.40;;;;;;4968747;28;20169;-81
2021/06/01 09:23:52;;;;;;;0.80;0.80;;;28.10;43.50;;;;;;4975939;28;20038;-81
2021/06/01 09:29:19;;;;;;;;;;;28.10;44.80;;;;;;4973440;28;20042;-82
2021/06/01 09:32:02;;;;;;;2.33;0.90;;;27.40;45.20;;;;;;4961979;28;19910;-82
2021/06/01 09:34:33;;;;;;;;;;;28.20;44.70;;;;;;4970244;28;20027;-82
2021/06/01 09:37:18;;;;;;;2.45;0.98;;;28.30;43.10;;;;;;4962341;28;20236;-82
2021/06/01 09:39:44;;;;;;;0.90;0.90;;;27.90;44.50;;;;;;4976446;28;20113;-80
2021/06/01 09:42:27;;;;;;;1.08;0.98;;;27.90;44.50;;;;;;4979056;28;20019;-81
2021/06/01 09:45:09;;;;;;;1.08;0.98;;;28.50;44.00;;;;;;4977606;28;20030;-82
2021/06/01 09:47:43;;;;;;;;;;;27.90;43.80;;;;;;4980044;28;20112;-83
2021/06/01 09:50:22;;;;;;;1.60;0.95;;;26.90;45.50;;;;;;4972420;28;19913;-81
2021/06/01 09:52:51;;;;;;;2.25;0.98;;;27.20;49.50;;;;;;4968536;28;20037;-82
2021/06/01 09:55:24;;;;;;;0.95;0.95;;;28.30;46.90;;;;;;4977818;28;20037;-81
2021/06/01 09:57:50;;;;;;;0.70;0.70;;;28.90;47.10;;;;;;4978031;28;20070;-81
2021/06/01 10:00:18;;;;;;;1.23;1.13;;;28.60;45.70;;;;;;4977484;28;20026;-80
2021/06/01 10:02:51;;;;;;;2.25;0.80;;;28.20;45.90;;;;;;4976802;28;20045;-82
2021/06/01 10:05:22;;;;;;;;;;;27.90;45.60;;;;;;4968862;28;20023;-81
2021/06/01 10:07:49;;;;;;;;;;;27.00;46.80;;;;;;4986796;28;19953;-83
2021/06/01 10:10:18;;;;;;;;;;;27.00;47.70;;;;;;4992489;28;19949;-82
2021/06/01 10:12:52;;;;;;;1.10;0.97;;;27.00;48.10;;;;;;4978779;28;20555;-83
2021/06/01 10:15:19;;;;;;;;;;;27.20;48.20;;;;;;4978388;28;20377;-82
2021/06/01 10:17:45;;;;;;;;;;;27.40;47.00;;;;;;4977140;28;19906;-80
2021/06/01 10:20:11;;;;;;;;;;;27.40;47.20;;;;;;4974552;28;19914;-81
2021/06/01 10:22:37;;;;;;;2.10;1.10;;;28.30;46.70;;;;;;4977647;28;20052;-81
2021/06/01 10:25:04;;;;;;;2.50;1.23;;;28.50;47.10;;;;;;4977110;28;20073;-82
2021/06/01 10:27:30;;;;;;;1.35;0.80;;;27.90;47.50;;;;;;4977429;28;20019;-82
2021/06/01 10:29:56;;;;;;;;;;;28.60;50.40;;;;;;4974090;28;20026;-82
2021/06/01 10:32:22;;;;;;;0.70;0.70;;;28.80;47.10;;;;;;4959714;28;19910;-83
2021/06/01 10:34:48;;;;;;;;;;;29.90;46.70;;;;;;4960549;28;20454;-82
2021/06/01 10:52:10;;;;;;;0.80;0.80;;;32.90;43.10;;;;;;4959731;28;20130;-82
2021/06/01 10:55:00;;;;;;;1.20;1.10;;;31.30;44.60;;;;;;4972565;28;20391;-82
2021/06/01 10:57:55;;;;;;;2.67;1.23;;;31.00;44.00;;;;;;4970570;28;20083;-81
2021/06/01 11:03:08;;;;;;;0.95;0.70;;;30.90;46.90;;;;;;4977696;28;20046;-81
2021/06/01 11:05:57;;;;;;;1.95;1.27;;;31.70;44.10;;;;;;4964304;28;20031;-82
2021/06/01 11:08:52;;;;;;;1.58;0.98;;;32.10;42.60;;;;;;4968211;28;20146;-82
2021/06/01 11:11:27;;;;;;;1.43;1.07;;;31.30;44.20;;;;;;4962390;28;20035;-81
2021/06/01 11:13:56;;;;;;;0.90;0.80;;;30.30;43.70;;;;;;4977459;28;20266;-82
2021/06/01 11:16:22;;;;;;;;;;;29.10;43.50;;;;;;4978833;28;20503;-81
2021/06/01 11:18:55;;;;;;;;;;;28.30;44.30;;;;;;5004587;28;19914;-82
2021/06/01 11:21:30;;;;;;;1.35;1.00;;;28.30;44.70;;;;;;4974681;28;20837;-81
2021/06/01 11:33:01;;;;;;;;;;;26.60;45.00;;;;;;4965835;28;19913;-82
2021/06/01 11:35:28;;;;;;;;;;;26.20;47.60;;;;;;4971162;28;19930;-80
2021/06/01 11:43:19;;;;;;;;;;;26.90;48.30;;;;;;4959954;28;19974;-81
2021/06/01 11:45:52;;;;;;;;;;;26.40;47.20;;;;;;4970872;28;19906;-81
2021/06/01 11:51:19;;;;;;;;;;;26.70;47.10;;;;;;4951330;28;20010;-82
2021/06/01 11:53:44;;;;;;;;;;;26.80;46.90;;;;;;5003344;28;20624;-81
2021/06/01 11:56:10;;;;;;;;;;;26.00;47.60;;;;;;4968428;28;19910;-80
2021/06/01 12:04:09;;;;;;;;;;;26.50;47.50;;;;;;4971264;28;19952;-82
2021/06/01 12:12:41;;;;;;;;;;;26.70;47.90;;;;;;4960848;28;20273;-81
2021/06/01 12:17:59;;;;;;;;;;;26.40;46.70;;;;;;4960131;29;20197;-81
2021/06/01 12:20:25;;;;;;;;;;;26.60;47.20;;;;;;4960510;28;20360;-82
2021/06/01 12:22:50;;;;;;;;;;;26.70;47.90;;;;;;4960129;28;20313;-82
2021/06/01 12:25:18;;;;;;;;;;;26.70;48.30;;;;;;4960689;28;20430;-81
2021/06/01 12:27:54;;;;;;;;;;;26.90;47.40;;;;;;4959481;29;19922;-82
2021/06/01 12:33:07;;;;;;;;;;;26.60;47.70;;;;;;4960522;29;19913;-82
2021/06/01 12:43:55;;;;;;;;;;;26.60;47.80;;;;;;4961131;29;19969;-82
2021/06/01 13:19:39;;;;;;;;;;;27.00;47.20;;;;;;4983185;28;19913;-82
2021/06/01 13:38:42;;;;;;;;;;;26.90;46.60;;;;;;4984276;28;19912;-80
2021/06/01 13:46:45;;;;;;;;;;;27.00;47.70;;;;;;4982668;28;19925;-80
2021/06/01 13:52:17;;;;;;;;;;;26.70;46.70;;;;;;4982361;28;20267;-81
2021/06/01 14:00:17;;;;;;;;;;;26.60;47.20;;;;;;4970464;28;19907;-81
2021/06/01 14:15:20;;;;;;;;;;;27.30;47.50;;;;;;4983657;28;20428;-81
2021/06/01 14:30:04;;;;;;;;;;;26.60;48.50;;;;;;4982594;28;19913;-80
2021/06/01 14:54:45;;;;;;;;;;;26.60;46.60;;;;;;4981647;28;19907;-80
2021/06/01 15:03:53;;;;;;;;;;;26.90;46.20;;;;;;4962896;29;19917;-79
2021/06/01 15:11:14;;;;;;;;;;;26.50;47.10;;;;;;4979658;28;19975;-81
2021/06/01 15:49:56;;;;;;;;;;;26.80;45.80;;;;;;4983759;28;19914;-81
2021/06/01 15:52:54;;;;;;;;;;;26.70;47.20;;;;;;4985861;28;19918;-80
2021/06/01 16:11:21;;;;;;;;;;;26.20;48.00;;;;;;4984435;28;19928;-80
2021/06/01 16:12:41;;;;;;;;;;;26.40;47.00;;;;;;4982981;28;19953;-81
2021/06/01 16:15:24;;;;;;;;;;;26.40;47.10;;;;;;5014940;28;20321;-80
2021/06/01 16:23:28;;;;;;;;;;;26.10;48.00;;;;;;4982994;28;19952;-80
2021/06/01 16:31:44;;;;;;;;;;;26.00;47.30;;;;;;4969121;28;19977;-81
2021/06/01 16:42:51;;;;;;;;;;;25.50;48.90;;;;;;4968080;28;19917;-80
2021/06/01 17:04:37;;;;;;;;;;;25.10;53.70;;;;;;4980461;28;19977;-81
2021/06/01 17:07:11;;;;;;;;;;;25.10;48.70;;;;;;5009637;28;19965;-81
2021/06/01 17:12:28;;;;;;;;;;;25.00;49.90;;;;;;4962763;28;20422;-80
2021/06/01 17:14:55;;;;;;;;;;;24.90;50.50;;;;;;5001174;28;20006;-81
2021/06/01 17:17:22;;;;;;;;;;;24.90;49.80;;;;;;4966691;28;19911;-81
2021/06/01 17:20:05;;;;;;;;;;;24.80;50.30;;;;;;4978834;28;19990;-81
2021/06/01 17:36:01;;;;;;;;;;;24.50;51.00;;;;;;4960108;29;19957;-81
2021/06/01 17:38:27;;;;;;;;;;;24.30;50.40;;;;;;4959881;28;19929;-81
2021/06/01 17:40:57;;;;;;;;;;;24.40;50.20;;;;;;4960453;28;19906;-81
2021/06/01 17:43:27;;;;;;;;;;;24.30;49.90;;;;;;4965349;28;19917;-81
2021/06/01 17:45:54;;;;;;;;;;;24.20;50.20;;;;;;4970744;28;19910;-82
2021/06/01 17:48:31;;;;;;;;;;;24.20;49.80;;;;;;4964829;28;19945;-81
2021/06/01 17:50:57;;;;;;;;;;;24.10;50.40;;;;;;4997904;28;19910;-81
2021/06/01 17:53:23;;;;;;;;;;;24.00;50.60;;;;;;4970410;28;19945;-81
2021/06/01 17:55:52;;;;;;;;;;;23.90;50.60;;;;;;4971578;28;19910;-81
2021/06/01 17:58:21;;;;;;;;;;;23.80;51.90;;;;;;5013316;28;19977;-81
2021/06/01 18:00:47;;;;;;;;;;;23.60;50.50;;;;;;5014243;28;19913;-81
2021/06/01 18:03:13;;;;;;;;;;;23.40;53.20;;;;;;4977007;28;19914;-81
2021/06/01 18:05:42;;;;;;;;;;;23.40;51.10;;;;;;4999805;28;19990;-81
2021/06/01 18:08:19;;;;;;;;;;;23.30;50.90;;;;;;5003305;28;19953;-81
2021/06/01 18:41:50;;;;;;;;;;;22.50;52.60;;;;;;4981099;28;19968;-81
2021/06/01 19:27:21;;;;;;;;;;;21.20;57.10;;;;;;4968440;28;19913;-81
2021/06/01 19:51:16;;;;;;;;;;;20.20;58.70;;;;;;4966658;28;19924;-82
2021/06/01 19:53:43;;;;;;;;;;;20.20;63.30;;;;;;5008787;28;19910;-82
2021/06/01 19:56:08;;;;;;;;;;;20.00;59.40;;;;;;4975694;28;19949;-81
2021/06/01 19:58:34;;;;;;;;;;;19.90;59.30;;;;;;4975974;28;19910;-81
2021/06/01 20:01:06;;;;;;;;;;;20.00;59.20;;;;;;4972311;28;19945;-82
2021/06/01 20:03:33;;;;;;;;;;;20.00;60.30;;;;;;4975177;28;19910;-82
2021/06/01 20:05:59;;;;;;;;;;;19.80;60.50;;;;;;4974164;28;19913;-81
2021/06/01 20:08:25;;;;;;;;;;;19.70;60.80;;;;;;4976040;28;19916;-81
2021/06/01 20:10:54;;;;;;;;;;;19.70;59.90;;;;;;4973251;28;19946;-81
2021/06/01 20:13:19;;;;;;;;;;;19.60;62.60;;;;;;4977462;28;20404;-81
2021/06/01 20:15:45;;;;;;;;;;;19.50;60.10;;;;;;4975367;28;19952;-81
2021/06/01 20:18:11;;;;;;;;;;;19.60;61.10;;;;;;4975888;28;20012;-82
2021/06/01 20:20:38;;;;;;;;;;;19.50;59.90;;;;;;4975590;28;19906;-82
2021/06/01 20:23:05;;;;;;;;;;;19.50;60.50;;;;;;4975285;28;20344;-82
2021/06/01 20:25:31;;;;;;;;;;;19.30;61.70;;;;;;4974808;28;19916;-82
2021/06/01 20:27:58;;;;;;;;;;;19.30;61.10;;;;;;4970182;28;19913;-82
2021/06/01 20:30:39;;;;;;;;;;;19.20;62.20;;;;;;4955493;28;20337;-81
2021/06/01 20:33:09;;;;;;;;;;;19.10;62.60;;;;;;4956481;28;19907;-82
2021/06/01 20:35:39;;;;;;;;;;;19.10;63.70;;;;;;4956591;29;19915;-82
2021/06/01 20:38:05;;;;;;;;;;;19.00;61.90;;;;;;4958244;29;19988;-82
2021/06/01 20:40:31;;;;;;;;;;;19.10;62.00;;;;;;4958653;28;19957;-83
2021/06/01 20:42:57;;;;;;;;;;;19.00;64.10;;;;;;4957689;28;19907;-82
2021/06/01 20:45:27;;;;;;;;;;;18.90;61.30;;;;;;4958815;29;19953;-81
2021/06/01 20:47:54;;;;;;;;;;;19.00;61.40;;;;;;4958669;28;19906;-81
2021/06/01 20:50:19;;;;;;;;;;;19.10;62.00;;;;;;4959547;28;19907;-81
2021/06/01 20:52:44;;;;;;;;;;;19.00;61.40;;;;;;4960243;28;19921;-81
2021/06/01 20:55:12;;;;;;;;;;;18.90;64.70;;;;;;4960066;29;19957;-81
2021/06/01 20:57:38;;;;;;;;;;;18.80;62.00;;;;;;4959073;28;19917;-82
2021/06/01 21:00:05;;;;;;;;;;;18.90;61.70;;;;;;4957244;28;19938;-83
2021/06/01 21:02:35;;;;;;;;;;;18.90;63.30;;;;;;4957030;28;19906;-82
2021/06/01 21:05:01;;;;;;;;;;;18.90;61.70;;;;;;4956629;28;20008;-82
2021/06/01 21:07:27;;;;;;;;;;;18.90;62.30;;;;;;4957947;28;19910;-80
2021/06/01 21:09:52;;;;;;;;;;;18.90;61.20;;;;;;4956748;29;19913;-81
2021/06/01 21:12:18;;;;;;;;;;;18.90;61.10;;;;;;4956506;28;19907;-83
2021/06/01 21:14:43;;;;;;;;;;;18.70;65.90;;;;;;4957588;29;19929;-82
2021/06/01 21:17:09;;;;;;;;;;;18.50;64.00;;;;;;4957229;29;19941;-83
2021/06/01 21:19:34;;;;;;;;;;;18.30;66.90;;;;;;4959372;28;19911;-81
2021/06/01 21:22:01;;;;;;;;;;;18.10;67.50;;;;;;4961091;28;19912;-82
2021/06/01 21:24:27;;;;;;;;;;;18.00;65.70;;;;;;4960338;28;19906;-82
2021/06/01 21:26:52;;;;;;;;;;;17.90;69.50;;;;;;4960593;28;19906;-81
2021/06/01 21:29:19;;;;;;;;;;;17.80;69.30;;;;;;4960568;28;19965;-83
2021/06/01 21:31:49;;;;;;;;;;;17.60;73.00;;;;;;4961089;28;19946;-81
2021/06/01 21:34:18;;;;;;;;;;;17.50;73.30;;;;;;4961439;28;19934;-82
2021/06/01 21:36:44;;;;;;;;;;;17.40;72.50;;;;;;4960403;28;20313;-81
2021/06/01 21:39:12;;;;;;;;;;;17.30;74.70;;;;;;4960018;28;19969;-81
2021/06/01 21:41:38;;;;;;;;;;;17.10;75.00;;;;;;4959412;28;19910;-81
2021/06/01 21:44:04;;;;;;;;;;;17.00;79.70;;;;;;4959878;28;19954;-81
2021/06/01 21:46:31;;;;;;;;;;;16.80;81.10;;;;;;4957087;28;19907;-80
2021/06/01 21:49:01;;;;;;;;;;;16.70;84.40;;;;;;4956302;28;20346;-80
2021/06/01 21:51:27;;;;;;;;;;;16.50;90.80;;;;;;4955633;28;19922;-81
2021/06/01 21:53:53;;;;;;;;;;;16.40;94.60;;;;;;4957137;28;19906;-79
2021/06/01 21:56:19;;;;;;;;;;;16.30;95.60;;;;;;4955696;29;19910;-80
2021/06/01 21:58:47;;;;;;;;;;;16.10;99.90;;;;;;4956160;28;19918;-80
2021/06/01 22:01:13;;;;;;;;;;;16.10;99.90;;;;;;4957146;28;19906;-80
2021/06/01 22:03:39;;;;;;;;;;;16.00;99.90;;;;;;4956273;28;20028;-80
2021/06/01 22:06:04;;;;;;;;;;;16.00;99.90;;;;;;4956421;28;20451;-80
2021/06/01 22:08:30;;;;;;;;;;;15.80;99.90;;;;;;4956281;28;20001;-80
2021/06/01 22:10:55;;;;;;;;;;;15.80;99.90;;;;;;4958115;28;19906;-80
2021/06/01 22:13:21;;;;;;;;;;;15.80;99.90;;;;;;4956894;28;19917;-80
2021/06/01 22:15:47;;;;;;;;;;;15.70;99.90;;;;;;4957170;28;19914;-80
2021/06/01 22:18:15;;;;;;;;;;;15.60;99.90;;;;;;4958043;29;19906;-80
2021/06/01 22:20:49;;;;;;;;;;;15.60;99.90;;;;;;4956839;28;19957;-80
2021/06/01 22:23:16;;;;;;;;;;;15.50;99.90;;;;;;4956906;28;19914;-80
2021/06/01 22:25:44;;;;;;;;;;;15.50;99.90;;;;;;4956745;29;19913;-80
2021/06/01 22:28:09;;;;;;;;;;;15.40;99.90;;;;;;4956836;29;19907;-80
2021/06/01 22:36:09;;;;;;;;;;;15.40;99.90;;;;;;5951027;23;19924;-80
2021/06/01 22:38:35;;;;;;;;;;;15.40;99.90;;;;;;4976051;28;19917;-80
2021/06/01 23:31:03;;;;;;;;;;;15.20;99.90;;;;;;5430972;23;20373;-79
2021/06/01 23:33:29;;;;;;;;;;;15.30;99.90;;;;;;4976161;28;19913;-79
2021/06/01 23:35:55;;;;;;;;;;;15.30;99.90;;;;;;4974711;28;19914;-80
2021/06/01 23:38:35;;;;;;;;;;;15.20;99.90;;;;;;4974754;28;19906;-80
2021/06/01 23:41:01;;;;;;;;;;;15.10;99.90;;;;;;4974700;28;20358;-79
2021/06/01 23:43:26;;;;;;;;;;;15.00;99.90;;;;;;4973724;28;19913;-80
2021/06/01 23:45:54;;;;;;;;;;;14.90;99.90;;;;;;4975917;28;19906;-80
